Marsland, NE (69354)

5:35 PM MST on December 22, 2014 (GMT -0700)
Deadman | Change Station
CLOSE
Current Station
Personal Weather Station
Location: Crawford, NE
Elevation: 4180 ft
Nearby Weather Stations
Active Advisory: Winter Storm Warning

Elev 4180 ft 42.58 °N, 103.47 °W | Updated 16 seconds ago

Mostly Cloudy
Mostly Cloudy
34.3 °F
Feels Like 24 °F
N
16.1
Wind Variable Wind from West
Gusts 23.3 mph

Today
High -- | Low -- °F
--% Chance of Precip.
Yesterday
High -- | Low -- °F
Precip. -- in
7:19 AM 4:22 PM
New Moon, 1% visible
Pressure 29.71 in
Visibility 10.0 miles
Clouds Overcast 9000 ft
Windchill 24 °F
Dew Point 21 °F
Humidity 58%
Rainfall 0.00 in
Snow Depth Not available.
UV 0 out of 12
Pollen .10 out of 12
Air Quality Not available.
Flu Activity Not available.
METAR KCDR 222353Z AUTO 32019G27KT 10SM OVC090 03/M05 A2964 RMK AO2 PK WND 33035/2325 SLP059 T00331050 10061 20033 53016

More Conditions Fewer Conditions

Pressure 29.71 in
Visibility 10.0 miles
Clouds Overcast 9000 ft
Windchill 24 °F
Dew Point 21 °F
Humidity 58%
Rainfall 0.00 in
Snow Depth Not available.
UV 0 out of 12
Pollen .10 out of 12
Air Quality Not available.
Flu Activity Not available.
METAR KCDR 222353Z AUTO 32019G27KT 10SM OVC090 03/M05 A2964 RMK AO2 PK WND 33035/2325 SLP059 T00331050 10061 20033 53016

More Conditions Fewer Conditions

10-Day Weather Forecast

Almanac

Astronomy

Dec. 22, 2014 Rise Set
Actual Time
Civil Twilight
Nautical Twilight
Astronomical Twilight
Moon
Length of Visible Light
Length of Day
Tomorrow will be .
, % of the Moon is Illuminated

Today's Extremes

State Highs State Lows

Community

WunderPhotos

Upload Photos

1,779,738 photos uploaded!

WunderBlogs® & News

Nearby

Air Quality

  Air Quality AQ Index Pollutant
Not available.

Snow Depth

Station Depth Elevation

Earthquake Activity

City Distance Mag. Time & Date
Minimum magnitude displayed is 2.5.

Coastal Water Temperatures

Place Temperature

Nearby Weather Stations